createdAt,value
2019-02-24T00:01:25.489Z,60.00
2019-02-24T00:03:54.774Z,59.80
2019-02-24T00:06:24.293Z,59.80
2019-02-24T00:08:53.048Z,59.80
2019-02-24T00:11:21.551Z,60.00
2019-02-24T00:13:50.151Z,60.00
2019-02-24T00:16:18.921Z,60.30
2019-02-24T00:18:47.342Z,60.00
2019-02-24T00:21:16.291Z,60.20
2019-02-24T00:23:45.062Z,60.10
2019-02-24T00:26:13.946Z,60.30
2019-02-24T00:28:42.356Z,60.50
2019-02-24T00:31:11.048Z,60.30
2019-02-24T00:33:39.803Z,60.50
2019-02-24T00:36:08.802Z,60.90
2019-02-24T00:38:37.479Z,61.10
2019-02-24T00:41:06.265Z,61.30
2019-02-24T00:43:34.879Z,61.40
2019-02-24T00:46:03.626Z,61.70
2019-02-24T00:48:32.347Z,62.00
2019-02-24T00:51:00.941Z,62.10
2019-02-24T00:53:29.701Z,62.00
2019-02-24T00:55:58.314Z,62.40
2019-02-24T00:58:27.058Z,62.80
2019-02-24T01:00:55.672Z,63.20
2019-02-24T01:03:24.446Z,63.60
2019-02-24T01:05:53.735Z,63.40
2019-02-24T01:08:22.429Z,63.50
2019-02-24T01:10:51.322Z,63.30
2019-02-24T01:13:19.755Z,63.10
2019-02-24T01:15:48.397Z,63.50
2019-02-24T01:18:17.164Z,63.80
2019-02-24T01:20:45.864Z,64.10
2019-02-24T01:23:14.753Z,64.60
2019-02-24T01:25:43.154Z,64.80
2019-02-24T01:28:12.007Z,64.90
2019-02-24T01:30:40.435Z,65.10
2019-02-24T01:33:09.122Z,65.20
2019-02-24T01:35:37.518Z,65.10
2019-02-24T01:38:05.935Z,65.20
2019-02-24T01:40:34.662Z,65.30
2019-02-24T01:43:03.399Z,65.20
2019-02-24T01:45:31.806Z,65.20
2019-02-24T01:48:00.491Z,65.40
2019-02-24T01:50:28.896Z,65.60
2019-02-24T01:52:57.307Z,65.40
2019-02-24T01:55:26.037Z,65.50
2019-02-24T01:57:54.533Z,65.90
2019-02-24T02:00:23.264Z,66.00
2019-02-24T02:02:52.163Z,66.10
2019-02-24T02:05:20.938Z,66.10
2019-02-24T02:07:49.996Z,66.10
2019-02-24T02:10:18.408Z,66.40
2019-02-24T02:12:47.135Z,66.40
2019-02-24T02:15:15.560Z,66.70
2019-02-24T02:17:43.951Z,66.60
2019-02-24T02:20:12.600Z,66.70
2019-02-24T02:22:41.338Z,66.70
2019-02-24T02:25:10.194Z,66.70
2019-02-24T02:27:39.112Z,66.70
2019-02-24T02:30:10.063Z,66.70
2019-02-24T02:32:38.970Z,66.60
2019-02-24T02:35:08.578Z,67.00
2019-02-24T02:37:37.336Z,67.20
2019-02-24T02:40:07.714Z,67.60
2019-02-24T02:42:36.439Z,68.00
2019-02-24T02:45:07.299Z,68.20
2019-02-24T02:47:36.076Z,68.40
2019-02-24T02:50:05.427Z,68.70
2019-02-24T02:52:33.904Z,69.00
2019-02-24T02:55:02.646Z,69.10
2019-02-24T02:57:31.115Z,69.20
2019-02-24T02:59:59.918Z,69.30
2019-02-24T03:02:28.629Z,69.40
2019-02-24T03:04:57.047Z,69.50
2019-02-24T03:07:27.591Z,69.50
2019-02-24T03:09:56.282Z,69.70
2019-02-24T03:12:25.173Z,69.80
2019-02-24T03:14:53.877Z,69.80
2019-02-24T03:17:22.548Z,69.80
2019-02-24T03:19:51.263Z,69.70
2019-02-24T03:22:19.693Z,69.90
2019-02-24T03:24:48.424Z,70.00
2019-02-24T03:27:17.485Z,70.20
2019-02-24T03:29:46.179Z,70.30
2019-02-24T03:32:14.811Z,70.40
2019-02-24T03:34:43.274Z,70.60
2019-02-24T03:37:12.146Z,70.60
2019-02-24T03:39:40.826Z,70.80
2019-02-24T03:42:09.463Z,70.90
2019-02-24T03:44:38.001Z,71.00
2019-02-24T03:47:06.735Z,71.20
2019-02-24T03:49:35.463Z,71.50
2019-02-24T03:52:04.060Z,71.80
2019-02-24T03:54:32.958Z,71.90
2019-02-24T03:57:01.619Z,72.00
2019-02-24T03:59:30.235Z,72.00
2019-02-24T04:01:58.645Z,72.10
2019-02-24T04:04:27.559Z,72.30
2019-02-24T04:06:56.008Z,72.20
2019-02-24T04:09:24.666Z,72.30
2019-02-24T04:11:53.731Z,72.50
2019-02-24T04:14:22.446Z,72.80
2019-02-24T04:16:51.231Z,72.90
2019-02-24T04:19:19.944Z,73.10
2019-02-24T04:21:48.360Z,73.20
2019-02-24T04:24:16.767Z,73.30
2019-02-24T04:26:45.766Z,73.60
2019-02-24T04:29:14.335Z,73.70
2019-02-24T04:31:43.082Z,73.90
2019-02-24T04:34:12.012Z,74.10
2019-02-24T04:36:40.414Z,74.30
2019-02-24T04:39:08.854Z,74.20
2019-02-24T04:41:37.655Z,74.20
2019-02-24T04:44:06.341Z,74.20
2019-02-24T04:46:34.814Z,74.20
2019-02-24T04:49:03.223Z,74.20
2019-02-24T04:51:31.673Z,74.20
2019-02-24T04:54:00.385Z,74.10
2019-02-24T04:56:28.867Z,74.20
2019-02-24T04:58:57.295Z,74.30
2019-02-24T05:01:26.333Z,74.60
2019-02-24T05:03:54.738Z,74.70
2019-02-24T05:06:23.487Z,74.80
2019-02-24T05:08:51.914Z,74.90
2019-02-24T05:11:20.658Z,74.80
2019-02-24T05:13:49.132Z,74.90
2019-02-24T05:16:17.562Z,75.00
2019-02-24T05:18:46.001Z,75.20
2019-02-24T05:21:14.409Z,75.10
2019-02-24T05:23:43.246Z,75.10
2019-02-24T05:26:11.773Z,75.30
2019-02-24T05:28:40.538Z,75.70
2019-02-24T05:31:08.943Z,76.10
2019-02-24T05:33:37.385Z,76.70
2019-02-24T05:36:06.057Z,76.00
2019-02-24T05:38:34.947Z,76.20
2019-02-24T05:41:03.783Z,76.20
2019-02-24T05:43:32.194Z,76.20
2019-02-24T05:46:00.799Z,76.20
2019-02-24T05:48:29.287Z,76.40
2019-02-24T05:50:58.074Z,76.10
2019-02-24T05:53:26.508Z,76.90
2019-02-24T05:55:56.464Z,76.10
2019-02-24T05:58:24.923Z,75.90
2019-02-24T06:00:53.557Z,75.90
2019-02-24T06:03:22.317Z,76.10
2019-02-24T06:05:50.726Z,76.20
2019-02-24T06:08:19.430Z,76.30
2019-02-24T06:10:47.882Z,76.40
2019-02-24T06:13:16.647Z,76.40
2019-02-24T06:15:45.262Z,76.70
2019-02-24T06:18:14.004Z,76.70
2019-02-24T06:20:42.437Z,76.70
2019-02-24T06:23:11.191Z,77.00
2019-02-24T06:25:39.976Z,77.10
2019-02-24T06:28:08.392Z,77.30
2019-02-24T06:30:37.126Z,77.50
2019-02-24T06:33:05.921Z,77.60
2019-02-24T06:35:36.011Z,77.80
2019-02-24T06:38:04.595Z,78.00
2019-02-24T06:40:32.996Z,78.10
2019-02-24T06:43:20.772Z,78.00
2019-02-24T06:45:49.633Z,77.40
2019-02-24T06:48:18.413Z,78.20
2019-02-24T06:50:55.513Z,78.70
2019-02-24T06:53:23.938Z,78.90
2019-02-24T06:55:52.402Z,79.00
2019-02-24T06:58:21.142Z,79.20
2019-02-24T07:00:49.611Z,79.40
2019-02-24T07:03:18.324Z,79.50
2019-02-24T07:05:47.101Z,79.60
2019-02-24T07:08:15.526Z,79.60
2019-02-24T07:10:43.967Z,79.70
2019-02-24T07:13:12.746Z,79.70
2019-02-24T07:15:41.194Z,80.00
2019-02-24T07:18:09.897Z,80.10
2019-02-24T07:20:38.714Z,80.20
2019-02-24T07:23:07.127Z,80.30
2019-02-24T07:25:35.566Z,80.50
2019-02-24T07:28:03.975Z,80.60
2019-02-24T07:30:32.483Z,80.70
2019-02-24T07:33:00.919Z,80.60
2019-02-24T07:35:29.691Z,80.60
2019-02-24T07:37:58.467Z,80.50
2019-02-24T07:40:27.253Z,80.50
2019-02-24T07:42:55.960Z,80.80
2019-02-24T07:45:24.471Z,80.60
2019-02-24T07:47:53.203Z,80.50
2019-02-24T07:50:21.998Z,80.60
2019-02-24T07:52:50.823Z,80.50
2019-02-24T07:55:19.600Z,80.30
2019-02-24T07:57:48.272Z,79.90
2019-02-24T08:00:16.876Z,79.80
2019-02-24T08:02:45.368Z,79.80
2019-02-24T08:05:13.839Z,79.60
2019-02-24T08:07:42.990Z,79.70
2019-02-24T08:10:11.730Z,79.50
2019-02-24T08:12:40.198Z,79.30
2019-02-24T08:15:09.969Z,79.50
2019-02-24T08:17:38.490Z,79.30
2019-02-24T08:20:08.947Z,78.20
2019-02-24T08:22:37.467Z,77.50
2019-02-24T08:25:26.807Z,76.90
2019-02-24T08:27:55.631Z,76.30
2019-02-24T08:30:24.414Z,76.00
2019-02-24T08:32:52.845Z,76.10
2019-02-24T08:35:21.284Z,76.00
2019-02-24T08:37:50.064Z,75.60
2019-02-24T08:40:18.851Z,75.30
2019-02-24T08:42:47.254Z,76.30
2019-02-24T08:45:15.699Z,77.20
2019-02-24T08:47:44.390Z,76.40
2019-02-24T08:50:13.618Z,73.10
2019-02-24T08:52:42.090Z,69.70
2019-02-24T08:55:10.897Z,69.20
2019-02-24T08:57:59.602Z,67.70
2019-02-24T09:00:28.242Z,65.00
2019-02-24T09:02:57.538Z,64.50
2019-02-24T09:05:26.708Z,63.50
2019-02-24T09:07:55.701Z,62.50
2019-02-24T09:10:24.190Z,63.50
2019-02-24T09:12:52.795Z,62.80
2019-02-24T09:15:21.210Z,61.90
2019-02-24T09:17:49.714Z,59.10
2019-02-24T09:20:18.572Z,58.10
2019-02-24T09:22:47.290Z,57.20
2019-02-24T09:25:16.062Z,55.70
2019-02-24T09:27:44.702Z,55.30
2019-02-24T09:30:14.480Z,54.30
2019-02-24T09:32:43.108Z,53.00
2019-02-24T09:35:11.886Z,53.30
2019-02-24T09:37:40.921Z,53.90
2019-02-24T09:40:11.080Z,54.30
2019-02-24T09:42:40.075Z,54.90
2019-02-24T09:45:10.640Z,55.00
2019-02-24T09:47:46.294Z,54.30
2019-02-24T09:50:10.433Z,53.40
2019-02-24T09:52:39.123Z,51.80
2019-02-24T09:55:09.460Z,50.90
2019-02-24T09:57:38.330Z,50.00
2019-02-24T10:00:10.977Z,49.20
2019-02-24T10:02:39.870Z,47.10
2019-02-24T10:05:08.759Z,46.50
2019-02-24T10:07:39.041Z,45.80
2019-02-24T10:10:09.984Z,44.50
2019-02-24T10:12:38.609Z,44.10
2019-02-24T10:15:10.673Z,42.70
2019-02-24T10:17:39.669Z,42.60
2019-02-24T10:20:10.566Z,40.40
2019-02-24T10:22:39.210Z,39.70
2019-02-24T10:25:08.974Z,39.40
2019-02-24T10:27:37.454Z,41.30
2019-02-24T10:30:11.533Z,37.50
2019-02-24T10:32:39.940Z,38.80
2019-02-24T10:35:08.416Z,40.00
2019-02-24T10:37:37.327Z,40.20
2019-02-24T10:40:12.526Z,41.30
2019-02-24T10:42:41.300Z,40.80
2019-02-24T10:45:12.939Z,37.40
2019-02-24T10:47:41.795Z,36.80
2019-02-24T10:50:12.901Z,36.30
2019-02-24T10:52:41.825Z,35.30
2019-02-24T10:55:11.402Z,35.50
2019-02-24T10:57:40.115Z,35.80
2019-02-24T11:00:19.066Z,35.70
2019-02-24T11:02:47.775Z,33.70
2019-02-24T11:05:16.618Z,31.80
2019-02-24T11:07:45.411Z,30.50
2019-02-24T11:10:15.357Z,31.30
2019-02-24T11:12:44.039Z,31.50
2019-02-24T11:15:13.753Z,32.40
2019-02-24T11:17:42.182Z,31.00
2019-02-24T11:20:13.142Z,32.30
2019-02-24T11:22:41.761Z,30.80
2019-02-24T11:25:11.565Z,30.70
2019-02-24T11:27:40.095Z,29.20
2019-02-24T11:30:12.091Z,28.50
2019-02-24T11:32:40.787Z,28.30
2019-02-24T11:35:13.290Z,28.70
2019-02-24T11:37:42.062Z,27.40
2019-02-24T11:40:12.248Z,29.30
2019-02-24T11:42:40.929Z,29.00
2019-02-24T11:45:10.099Z,29.50
2019-02-24T11:47:39.014Z,28.90
2019-02-24T11:50:10.241Z,29.00
2019-02-24T11:52:39.070Z,28.90
2019-02-24T11:55:09.572Z,28.70
2019-02-24T11:57:38.458Z,26.30
2019-02-24T12:00:15.417Z,26.80
2019-02-24T12:02:43.893Z,25.40
2019-02-24T12:05:12.525Z,27.40
2019-02-24T12:07:41.502Z,26.50
2019-02-24T12:10:32.190Z,24.00
2019-02-24T12:13:03.354Z,22.50
2019-02-24T12:15:32.066Z,25.10
2019-02-24T12:18:00.755Z,25.30
2019-02-24T12:20:29.550Z,22.50
2019-02-24T12:22:58.427Z,21.90
2019-02-24T12:25:27.118Z,22.90
2019-02-24T12:27:56.177Z,22.10
2019-02-24T12:30:24.632Z,23.60
2019-02-24T12:32:53.474Z,23.20
2019-02-24T12:35:22.491Z,21.10
2019-02-24T12:37:51.339Z,22.80
2019-02-24T12:40:20.074Z,24.40
2019-02-24T12:42:48.506Z,24.70
2019-02-24T12:45:17.173Z,23.80
2019-02-24T12:47:46.182Z,22.40
2019-02-24T12:50:16.344Z,22.30
2019-02-24T12:52:44.769Z,21.70
2019-02-24T12:55:14.091Z,23.60
2019-02-24T12:57:43.458Z,24.30
2019-02-24T13:00:21.111Z,23.60
2019-02-24T13:02:49.874Z,24.90
2019-02-24T13:05:18.662Z,24.70
2019-02-24T13:07:47.582Z,24.80
2019-02-24T13:10:35.707Z,24.20
2019-02-24T13:13:05.968Z,24.40
2019-02-24T13:15:34.801Z,23.70
2019-02-24T13:18:03.311Z,23.20
2019-02-24T13:20:32.406Z,23.50
2019-02-24T13:23:00.871Z,23.40
2019-02-24T13:25:29.856Z,22.80
2019-02-24T13:27:58.335Z,22.50
2019-02-24T13:30:46.595Z,23.20
2019-02-24T13:33:15.010Z,22.90
2019-02-24T13:35:43.430Z,23.50
2019-02-24T13:38:12.426Z,23.00
2019-02-24T13:40:41.203Z,21.70
2019-02-24T13:43:09.980Z,22.40
2019-02-24T13:45:38.646Z,22.80
2019-02-24T13:48:07.388Z,22.30
2019-02-24T13:50:36.290Z,21.40
2019-02-24T13:53:05.141Z,21.20
2019-02-24T13:55:34.019Z,21.70
2019-02-24T13:58:02.446Z,21.00
2019-02-24T14:00:32.644Z,19.70
2019-02-24T14:03:01.046Z,17.40
2019-02-24T14:05:29.814Z,17.40
2019-02-24T14:07:58.780Z,18.80
2019-02-24T14:10:27.574Z,19.10
2019-02-24T14:12:56.018Z,19.80
2019-02-24T14:15:26.296Z,19.30
2019-02-24T14:17:55.076Z,18.50
2019-02-24T14:20:23.947Z,19.20
2019-02-24T14:22:52.670Z,19.10
2019-02-24T14:25:21.376Z,19.20
2019-02-24T14:27:49.781Z,18.00
2019-02-24T14:30:18.954Z,17.60
2019-02-24T14:32:47.697Z,18.90
2019-02-24T14:35:19.002Z,19.20
2019-02-24T14:37:47.817Z,18.60
2019-02-24T14:40:16.828Z,18.20
2019-02-24T14:42:46.737Z,17.40
2019-02-24T14:45:25.358Z,18.80
2019-02-24T14:47:54.005Z,18.90
2019-02-24T14:50:22.746Z,18.70
2019-02-24T14:52:51.520Z,19.40
2019-02-24T14:55:20.411Z,20.10
2019-02-24T14:57:49.095Z,19.10
2019-02-24T15:00:22.749Z,18.50
2019-02-24T15:02:51.570Z,18.30
2019-02-24T15:05:20.230Z,18.50
2019-02-24T15:07:48.645Z,18.10
2019-02-24T15:10:18.920Z,17.20
2019-02-24T15:12:47.642Z,17.20
2019-02-24T15:15:19.247Z,16.70
2019-02-24T15:17:48.922Z,17.00
2019-02-24T15:20:19.754Z,17.40
2019-02-24T15:22:48.530Z,16.10
2019-02-24T15:25:19.182Z,17.10
2019-02-24T15:27:48.065Z,17.60
2019-02-24T15:30:28.963Z,17.80
2019-02-24T15:32:57.377Z,17.90
2019-02-24T15:35:26.290Z,18.00
2019-02-24T15:37:54.740Z,18.00
2019-02-24T15:40:23.391Z,18.70
2019-02-24T15:42:52.160Z,19.30
2019-02-24T15:45:21.463Z,19.50
2019-02-24T15:47:50.275Z,19.40
2019-02-24T15:50:18.985Z,19.20
2019-02-24T15:52:47.816Z,20.00
2019-02-24T15:55:17.683Z,18.70
2019-02-24T15:57:46.225Z,19.10
2019-02-24T16:00:17.488Z,19.20
2019-02-24T16:02:46.301Z,19.70
2019-02-24T16:05:14.963Z,19.50
2019-02-24T16:07:43.742Z,19.60
2019-02-24T16:10:21.907Z,20.20
2019-02-24T16:12:51.067Z,20.40
2019-02-24T16:15:22.098Z,19.70
2019-02-24T16:17:50.524Z,20.20
2019-02-24T16:20:29.537Z,20.10
2019-02-24T16:22:58.103Z,19.80
2019-02-24T16:25:27.238Z,19.90
2019-02-24T16:27:55.670Z,19.60
2019-02-24T16:30:24.645Z,19.40
2019-02-24T16:32:53.408Z,19.30
2019-02-24T16:35:22.401Z,19.10
2019-02-24T16:37:50.992Z,19.50
2019-02-24T16:40:30.566Z,19.70
2019-02-24T16:42:59.322Z,20.30
2019-02-24T16:45:28.228Z,20.50
2019-02-24T16:47:57.293Z,21.00
2019-02-24T16:50:26.078Z,21.40
2019-02-24T16:52:54.895Z,21.90
2019-02-24T16:55:23.698Z,22.50
2019-02-24T16:57:52.563Z,24.20
2019-02-24T17:00:26.458Z,24.10
2019-02-24T17:02:55.482Z,24.60
2019-02-24T17:05:24.466Z,24.60
2019-02-24T17:07:52.960Z,24.80
2019-02-24T17:10:24.065Z,25.00
2019-02-24T17:12:52.843Z,25.60
2019-02-24T17:15:21.638Z,24.90
2019-02-24T17:17:50.225Z,26.40
2019-02-24T17:20:31.682Z,26.20
2019-02-24T17:23:00.322Z,25.60
2019-02-24T17:25:29.069Z,26.10
2019-02-24T17:27:57.514Z,26.10
2019-02-24T17:30:26.251Z,26.00
2019-02-24T17:32:55.167Z,26.20
2019-02-24T17:35:24.035Z,26.50
2019-02-24T17:37:52.507Z,27.80
2019-02-24T17:40:22.105Z,28.00
2019-02-24T17:42:50.920Z,26.50
2019-02-24T17:45:19.703Z,27.60
2019-02-24T17:47:48.411Z,28.50
2019-02-24T17:50:18.295Z,28.90
2019-02-24T17:52:46.848Z,28.50
2019-02-24T17:55:16.712Z,28.10
2019-02-24T17:57:45.472Z,29.40
2019-02-24T18:00:26.846Z,29.20
2019-02-24T18:02:55.971Z,29.40
2019-02-24T18:05:25.068Z,29.40
2019-02-24T18:07:53.505Z,29.30
2019-02-24T18:10:22.327Z,29.40
2019-02-24T18:12:51.288Z,29.10
2019-02-24T18:15:20.097Z,29.40
2019-02-24T18:17:48.791Z,28.60
2019-02-24T18:20:20.832Z,28.80
2019-02-24T18:22:49.334Z,29.20
2019-02-24T18:25:18.521Z,29.60
2019-02-24T18:27:47.334Z,29.80
2019-02-24T18:30:30.011Z,29.90
2019-02-24T18:32:59.922Z,29.90
2019-02-24T18:35:28.961Z,30.30
2019-02-24T18:37:57.723Z,31.10
2019-02-24T18:40:26.636Z,31.30
2019-02-24T18:43:00.312Z,30.90
2019-02-24T18:45:25.947Z,29.80
2019-02-24T18:47:54.935Z,30.00
2019-02-24T18:50:23.705Z,29.50
2019-02-24T18:52:52.234Z,30.00
2019-02-24T18:55:20.657Z,30.40
2019-02-24T18:57:49.123Z,31.40
2019-02-24T19:00:19.897Z,32.00
2019-02-24T19:02:48.623Z,32.40
2019-02-24T19:05:17.467Z,32.50
2019-02-24T19:07:46.363Z,32.80
2019-02-24T19:10:17.119Z,33.10
2019-02-24T19:12:45.922Z,33.30
2019-02-24T19:15:16.989Z,33.10
2019-02-24T19:17:45.792Z,32.80
2019-02-24T19:20:17.538Z,33.80
2019-02-24T19:22:46.356Z,33.70
2019-02-24T19:25:15.513Z,33.30
2019-02-24T19:27:44.127Z,33.10
2019-02-24T19:30:16.693Z,31.50
2019-02-24T19:32:45.203Z,32.20
2019-02-24T19:35:15.299Z,33.20
2019-02-24T19:37:43.945Z,33.20
2019-02-24T19:40:23.234Z,34.00
2019-02-24T19:42:51.756Z,33.50
2019-02-24T19:45:22.686Z,33.70
2019-02-24T19:47:51.151Z,33.80
2019-02-24T19:50:19.916Z,33.50
2019-02-24T19:52:48.790Z,33.70
2019-02-24T19:55:18.234Z,33.70
2019-02-24T19:57:47.075Z,33.90
2019-02-24T20:00:18.131Z,33.90
2019-02-24T20:02:46.822Z,34.30
2019-02-24T20:05:15.702Z,33.80
2019-02-24T20:07:44.887Z,34.00
2019-02-24T20:10:18.726Z,34.50
2019-02-24T20:12:47.481Z,34.40
2019-02-24T20:15:17.016Z,34.90
2019-02-24T20:17:45.779Z,35.10
2019-02-24T20:20:16.615Z,35.60
2019-02-24T20:22:45.541Z,35.70
2019-02-24T20:25:19.110Z,36.70
2019-02-24T20:27:47.563Z,36.60
2019-02-24T20:30:36.041Z,37.20
2019-02-24T20:33:05.037Z,37.70
2019-02-24T20:35:33.818Z,36.90
2019-02-24T20:38:02.842Z,36.80
2019-02-24T20:40:32.076Z,37.10
2019-02-24T20:43:00.794Z,37.50
2019-02-24T20:45:29.579Z,36.90
2019-02-24T20:47:58.374Z,37.00
2019-02-24T20:50:32.586Z,37.50
2019-02-24T20:53:01.378Z,38.00
2019-02-24T20:55:30.041Z,38.60
2019-02-24T20:57:58.847Z,38.60
2019-02-24T21:00:30.388Z,38.10
2019-02-24T21:03:01.183Z,38.00
2019-02-24T21:05:30.336Z,38.00
2019-02-24T21:07:58.818Z,38.40
2019-02-24T21:10:27.301Z,38.60
2019-02-24T21:12:56.755Z,39.10
2019-02-24T21:15:25.585Z,39.30
2019-02-24T21:17:54.111Z,39.20
2019-02-24T21:20:25.608Z,39.20
2019-02-24T21:22:54.223Z,39.30
2019-02-24T21:25:22.700Z,39.30
2019-02-24T21:27:51.682Z,39.30
2019-02-24T21:30:20.785Z,38.90
2019-02-24T21:32:49.543Z,38.90
2019-02-24T21:35:18.358Z,39.00
2019-02-24T21:37:47.018Z,39.40
2019-02-24T21:40:17.266Z,39.60
2019-02-24T21:42:45.786Z,39.50
2019-02-24T21:45:16.910Z,39.60
2019-02-24T21:47:45.421Z,39.70
2019-02-24T21:50:17.654Z,39.90
2019-02-24T21:52:46.342Z,40.00
2019-02-24T21:55:15.007Z,39.40
2019-02-24T21:57:43.825Z,40.00
2019-02-24T22:00:26.411Z,40.10
2019-02-24T22:02:55.165Z,40.30
2019-02-24T22:05:23.972Z,40.90
2019-02-24T22:07:52.741Z,41.10
2019-02-24T22:10:21.154Z,41.30
2019-02-24T22:12:49.578Z,41.30
2019-02-24T22:15:20.646Z,41.30
2019-02-24T22:17:49.188Z,41.00
2019-02-24T22:20:18.363Z,41.50
2019-02-24T22:22:46.909Z,41.70
2019-02-24T22:25:16.011Z,41.80
2019-02-24T22:27:44.410Z,42.10
2019-02-24T22:30:18.374Z,42.20
2019-02-24T22:32:47.297Z,42.20
2019-02-24T22:35:16.098Z,42.20
2019-02-24T22:37:44.960Z,42.30
2019-02-24T22:40:16.538Z,42.60
2019-02-24T22:42:46.664Z,42.60
2019-02-24T22:45:19.830Z,42.80
2019-02-24T22:47:48.716Z,42.90
2019-02-24T22:50:17.811Z,43.00
2019-02-24T22:52:47.331Z,43.50
2019-02-24T22:55:17.218Z,43.30
2019-02-24T22:57:46.478Z,43.20
2019-02-24T23:00:34.874Z,43.40
2019-02-24T23:03:03.857Z,43.40
2019-02-24T23:05:32.276Z,44.30
2019-02-24T23:08:01.224Z,44.70
2019-02-24T23:10:29.640Z,44.50
2019-02-24T23:12:58.390Z,44.70
2019-02-24T23:15:27.171Z,44.80
2019-02-24T23:17:55.859Z,45.10
2019-02-24T23:20:24.324Z,45.30
2019-02-24T23:22:53.173Z,45.40
2019-02-24T23:25:21.604Z,45.50
2019-02-24T23:27:50.302Z,45.80
2019-02-24T23:30:18.747Z,46.10
2019-02-24T23:32:47.163Z,45.90
2019-02-24T23:35:15.946Z,45.90
2019-02-24T23:37:44.403Z,45.90
2019-02-24T23:40:13.723Z,46.10
2019-02-24T23:42:42.507Z,46.00
2019-02-24T23:45:13.975Z,46.10
2019-02-24T23:47:42.446Z,46.30
2019-02-24T23:50:12.325Z,46.10
2019-02-24T23:52:40.770Z,46.00
2019-02-24T23:55:10.793Z,46.00
2019-02-24T23:57:39.312Z,45.90
